Time;durP1;ratioP1;P1;durP2;ratioP2;P2;SDS_P1;SDS_P2;PMS_P1;PMS_P2;Temp;Humidity;BMP_temperature;BMP_pressure;BME280_temperature;BME280_humidity;BME280_pressure;Samples;Min_cycle;Max_cycle;Signal;HPM_P1;HPM_P2
2023/08/12 00:00:12;;;;;;;11.43;6.03;;;13.30;99.90;;;;;;5073375;28;20233;-86
2023/08/12 00:02:41;;;;;;;11.02;5.85;;;13.30;99.90;;;;;;5073182;28;20238;-87
2023/08/12 00:05:07;;;;;;;7.60;5.15;;;13.30;99.90;;;;;;5072989;28;20254;-87
2023/08/12 00:07:34;;;;;;;8.95;5.38;;;13.30;99.90;;;;;;5072894;28;20181;-86
2023/08/12 00:10:03;;;;;;;8.45;4.78;;;13.20;99.90;;;;;;5057001;28;20221;-86
2023/08/12 00:12:29;;;;;;;6.88;4.35;;;13.20;99.90;;;;;;5058828;28;20207;-86
2023/08/12 00:14:55;;;;;;;8.38;4.75;;;13.20;99.90;;;;;;5058826;28;20269;-86
2023/08/12 00:17:21;;;;;;;8.88;4.82;;;13.20;99.90;;;;;;5077057;28;20238;-86
2023/08/12 00:19:46;;;;;;;9.82;4.22;;;13.10;99.90;;;;;;5061967;28;20678;-87
2023/08/12 00:22:12;;;;;;;8.70;4.75;;;13.10;99.90;;;;;;5086301;28;20190;-86
2023/08/12 00:24:39;;;;;;;6.90;4.97;;;13.10;99.90;;;;;;5081229;28;20178;-86
2023/08/12 00:27:06;;;;;;;7.13;4.70;;;13.00;99.90;;;;;;5071216;28;20206;-86
2023/08/12 00:29:32;;;;;;;6.63;4.78;;;12.90;99.90;;;;;;5059099;28;20311;-86
2023/08/12 00:31:58;;;;;;;11.65;4.93;;;12.90;99.90;;;;;;5060086;28;20185;-86
2023/08/12 00:34:23;;;;;;;10.38;5.45;;;12.90;99.90;;;;;;5077668;28;20179;-87
2023/08/12 00:36:49;;;;;;;10.93;5.35;;;12.90;99.90;;;;;;5059120;28;20183;-87
2023/08/12 00:39:15;;;;;;;9.65;4.85;;;12.90;99.90;;;;;;5074191;28;20238;-87
2023/08/12 00:41:41;;;;;;;11.35;5.53;;;12.90;99.90;;;;;;5098177;28;20164;-87
2023/08/12 00:44:07;;;;;;;11.48;5.90;;;13.00;99.90;;;;;;5061140;28;20180;-87
2023/08/12 00:46:33;;;;;;;8.15;5.45;;;12.90;99.90;;;;;;5058371;28;20639;-87
2023/08/12 00:48:59;;;;;;;7.25;4.80;;;12.90;99.90;;;;;;5058303;28;20652;-87
2023/08/12 00:51:26;;;;;;;10.30;5.07;;;12.80;99.90;;;;;;5058394;28;20190;-87
2023/08/12 00:53:52;;;;;;;10.90;5.00;;;12.80;99.90;;;;;;5041658;28;20749;-87
2023/08/12 00:56:18;;;;;;;9.00;5.70;;;12.70;99.90;;;;;;5075960;28;20254;-87
2023/08/12 00:58:45;;;;;;;7.55;5.25;;;12.70;99.90;;;;;;5042037;28;20217;-89
2023/08/12 01:01:11;;;;;;;8.52;5.07;;;12.70;99.90;;;;;;5058154;28;20179;-87
2023/08/12 01:03:37;;;;;;;9.65;5.85;;;12.80;99.90;;;;;;5058234;28;20209;-87
2023/08/12 01:06:03;;;;;;;9.15;5.95;;;12.70;99.90;;;;;;5058181;28;20183;-88
2023/08/12 01:08:31;;;;;;;7.65;5.38;;;12.70;99.90;;;;;;5076111;28;20571;-88
2023/08/12 01:11:28;;;;;;;8.68;5.13;;;12.70;99.90;;;;;;5075953;28;20183;-88
2023/08/12 01:14:12;;;;;;;8.18;5.43;;;12.70;99.90;;;;;;5065955;28;20670;-89
2023/08/12 01:16:42;;;;;;;8.10;5.70;;;12.70;99.90;;;;;;5058218;28;20183;-88
2023/08/12 01:19:16;;;;;;;7.00;5.57;;;12.60;99.90;;;;;;5076031;28;20218;-88
2023/08/12 01:21:44;;;;;;;9.65;6.07;;;12.60;99.90;;;;;;5074950;28;20170;-88
2023/08/12 01:24:10;;;;;;;13.73;6.05;;;12.60;99.90;;;;;;5041239;28;20183;-89
2023/08/12 01:26:35;;;;;;;8.45;5.43;;;12.60;99.90;;;;;;5058131;28;20643;-88
2023/08/12 01:29:01;;;;;;;7.60;4.97;;;12.50;99.90;;;;;;5076256;28;20258;-88
2023/08/12 01:31:38;;;;;;;11.75;5.60;;;12.50;99.90;;;;;;5057821;28;20180;-88
2023/08/12 01:34:22;;;;;;;13.93;5.57;;;12.50;99.90;;;;;;5075223;28;20705;-88
2023/08/12 01:36:55;;;;;;;7.40;4.72;;;12.50;99.90;;;;;;5057620;28;20179;-88
2023/08/12 01:39:23;;;;;;;9.85;5.25;;;12.40;99.90;;;;;;5057530;28;20518;-88
2023/08/12 01:41:51;;;;;;;11.30;5.20;;;12.40;99.90;;;;;;5075249;28;20172;-88
2023/08/12 01:44:17;;;;;;;7.45;5.10;;;12.40;99.90;;;;;;5075313;28;20199;-88
2023/08/12 01:46:46;;;;;;;12.00;5.10;;;12.40;99.90;;;;;;5075186;28;20179;-88
2023/08/12 01:49:12;;;;;;;12.20;5.82;;;12.40;99.90;;;;;;5040351;28;20251;-87
2023/08/12 01:51:37;;;;;;;10.98;6.07;;;12.30;99.90;;;;;;5040570;28;20214;-87
2023/08/12 01:54:03;;;;;;;7.85;4.85;;;12.30;99.90;;;;;;5074985;28;20551;-87
2023/08/12 01:56:29;;;;;;;12.05;5.57;;;12.30;99.90;;;;;;5056922;28;20531;-87
2023/08/12 01:58:54;;;;;;;6.88;4.85;;;12.40;99.90;;;;;;5057034;28;20191;-88
2023/08/12 02:01:20;;;;;;;11.10;6.07;;;12.30;99.90;;;;;;5056950;28;20187;-87
2023/08/12 02:03:45;;;;;;;8.30;5.45;;;12.20;99.90;;;;;;5040177;28;20183;-87
2023/08/12 02:06:11;;;;;;;11.02;5.60;;;12.20;99.90;;;;;;5040155;28;20218;-87
2023/08/12 02:08:37;;;;;;;7.95;5.47;;;12.30;99.90;;;;;;5040501;28;20655;-87
2023/08/12 02:11:02;;;;;;;8.25;5.18;;;12.30;99.90;;;;;;5056636;28;20634;-87
2023/08/12 02:13:29;;;;;;;9.25;5.60;;;12.30;99.90;;;;;;5056965;28;20624;-88
2023/08/12 02:15:55;;;;;;;8.88;5.47;;;12.40;99.90;;;;;;5056539;28;20317;-88
2023/08/12 02:18:20;;;;;;;11.15;5.10;;;12.40;99.90;;;;;;5074512;28;20258;-88
2023/08/12 02:20:49;;;;;;;9.23;6.10;;;12.40;99.90;;;;;;5040070;28;20278;-89
2023/08/12 02:23:15;;;;;;;8.55;5.47;;;12.40;99.90;;;;;;5056524;28;20258;-88
2023/08/12 02:25:40;;;;;;;7.75;4.85;;;12.40;99.90;;;;;;5040153;28;20263;-88
2023/08/12 02:28:06;;;;;;;8.23;6.07;;;12.40;99.90;;;;;;5056847;28;20190;-88
2023/08/12 02:30:31;;;;;;;10.90;4.95;;;12.40;99.90;;;;;;5056636;28;20214;-88
2023/08/12 02:32:57;;;;;;;9.43;5.25;;;12.40;99.90;;;;;;5056277;28;20179;-88
2023/08/12 02:35:23;;;;;;;7.32;4.97;;;12.40;99.90;;;;;;5057889;28;20560;-89
2023/08/12 02:37:49;;;;;;;8.63;4.93;;;12.40;99.90;;;;;;5042328;28;20183;-88
2023/08/12 02:40:14;;;;;;;7.47;4.97;;;12.40;99.90;;;;;;5059738;28;20183;-87
2023/08/12 02:42:40;;;;;;;8.23;5.93;;;12.40;99.90;;;;;;5040797;28;20205;-87
2023/08/12 02:45:06;;;;;;;11.10;5.90;;;12.30;99.90;;;;;;5040369;28;20643;-87
2023/08/12 02:47:32;;;;;;;10.38;6.20;;;12.30;99.90;;;;;;5055958;28;20550;-87
2023/08/12 02:49:57;;;;;;;12.07;5.78;;;12.20;99.90;;;;;;5039386;28;20217;-87
2023/08/12 02:52:23;;;;;;;8.25;6.15;;;12.20;99.90;;;;;;5039471;28;20229;-88
2023/08/12 02:54:49;;;;;;;13.27;6.75;;;12.20;99.90;;;;;;5074112;28;20223;-87
2023/08/12 02:57:14;;;;;;;13.98;6.93;;;12.20;99.90;;;;;;5056094;28;20670;-87
2023/08/12 02:59:40;;;;;;;12.02;5.72;;;12.10;99.90;;;;;;5056159;28;20190;-87
2023/08/12 03:02:06;;;;;;;11.00;7.05;;;12.10;99.90;;;;;;5073909;28;20239;-87
2023/08/12 03:04:31;;;;;;;12.50;7.68;;;12.10;99.90;;;;;;5056113;28;20175;-88
2023/08/12 03:06:57;;;;;;;10.45;6.85;;;12.10;99.90;;;;;;5055883;28;20172;-88
2023/08/12 03:09:23;;;;;;;12.52;6.93;;;12.00;99.90;;;;;;5055977;28;20207;-87
2023/08/12 03:11:48;;;;;;;10.07;6.57;;;12.10;99.90;;;;;;5055882;28;20644;-87
2023/08/12 03:14:14;;;;;;;11.65;7.03;;;12.10;99.90;;;;;;5073821;28;20231;-88
2023/08/12 03:16:40;;;;;;;15.25;8.20;;;12.10;99.90;;;;;;5039188;28;20159;-87
2023/08/12 03:19:05;;;;;;;11.52;6.95;;;12.10;99.90;;;;;;5074047;28;20190;-88
2023/08/12 03:21:31;;;;;;;9.57;6.78;;;12.20;99.90;;;;;;5073626;28;20181;-86
2023/08/12 03:23:56;;;;;;;20.20;8.98;;;12.20;99.90;;;;;;5073348;28;20182;-88
2023/08/12 03:26:22;;;;;;;14.93;9.02;;;12.30;99.90;;;;;;5039130;28;20186;-88
2023/08/12 03:28:48;;;;;;;14.00;8.13;;;12.40;99.90;;;;;;5073662;28;20293;-88
2023/08/12 03:31:13;;;;;;;12.38;8.60;;;12.40;99.90;;;;;;5055516;28;20613;-88
2023/08/12 03:33:39;;;;;;;15.73;8.50;;;12.50;99.90;;;;;;5073293;28;20688;-87
2023/08/12 03:36:05;;;;;;;12.93;7.88;;;12.50;99.90;;;;;;5039080;28;20261;-88
2023/08/12 03:38:30;;;;;;;9.50;7.05;;;12.50;99.90;;;;;;5038792;28;20187;-87
2023/08/12 03:40:56;;;;;;;10.25;6.65;;;12.60;99.90;;;;;;5022289;28;20190;-86
2023/08/12 03:43:22;;;;;;;11.35;6.65;;;12.60;99.90;;;;;;5055245;28;20184;-87
2023/08/12 03:45:47;;;;;;;10.75;6.70;;;12.70;99.90;;;;;;5076713;28;20171;-88
2023/08/12 03:48:13;;;;;;;8.80;6.32;;;12.70;99.90;;;;;;5059339;28;20186;-88
2023/08/12 03:50:39;;;;;;;10.32;6.43;;;12.70;99.90;;;;;;5058985;28;20258;-88
2023/08/12 03:53:06;;;;;;;12.48;7.70;;;12.70;99.90;;;;;;5041616;28;20263;-89
2023/08/12 03:55:32;;;;;;;12.60;7.28;;;12.70;99.90;;;;;;5059272;28;20240;-88
2023/08/12 03:57:59;;;;;;;12.63;8.05;;;12.80;99.90;;;;;;5059454;28;20183;-88
2023/08/12 04:00:24;;;;;;;12.43;7.18;;;12.80;99.90;;;;;;5077146;28;20254;-87
2023/08/12 04:02:50;;;;;;;10.82;7.20;;;12.90;99.90;;;;;;5059366;28;20305;-88
2023/08/12 04:05:16;;;;;;;16.58;6.80;;;12.90;99.90;;;;;;5058943;28;20175;-88
2023/08/12 04:07:42;;;;;;;12.85;7.60;;;12.90;99.90;;;;;;5076990;28;20580;-88
2023/08/12 04:10:08;;;;;;;11.38;5.70;;;13.00;99.90;;;;;;5058969;28;20211;-93
2023/08/12 04:12:34;;;;;;;6.70;5.28;;;13.00;99.90;;;;;;5077195;28;20179;-88
2023/08/12 04:15:02;;;;;;;7.55;5.47;;;13.10;99.90;;;;;;5059221;28;20341;-89
2023/08/12 04:17:27;;;;;;;10.05;6.10;;;13.10;99.90;;;;;;5061488;28;20183;-87
2023/08/12 04:19:53;;;;;;;9.63;5.88;;;13.20;99.90;;;;;;5069300;28;20198;-89
2023/08/12 04:22:19;;;;;;;9.10;6.13;;;13.20;99.90;;;;;;5080515;28;20175;-92
2023/08/12 04:24:44;;;;;;;9.77;5.25;;;13.20;99.90;;;;;;5060742;28;20687;-87
2023/08/12 04:27:10;;;;;;;15.48;10.68;;;13.40;99.90;;;;;;5043881;28;20180;-91
2023/08/12 04:29:36;;;;;;;12.80;7.30;;;13.60;99.90;;;;;;5042980;28;20217;-89
2023/08/12 04:32:03;;;;;;;6.85;5.45;;;13.80;99.90;;;;;;5059319;28;20179;-88
2023/08/12 04:34:28;;;;;;;11.32;6.10;;;13.90;99.90;;;;;;5059120;28;20188;-90
2023/08/12 04:36:54;;;;;;;10.57;6.13;;;14.00;99.90;;;;;;5058978;28;20671;-89
2023/08/12 04:39:20;;;;;;;7.57;5.32;;;14.10;99.90;;;;;;5077237;28;20189;-89
2023/08/12 04:41:45;;;;;;;8.57;5.68;;;14.30;99.90;;;;;;5058737;28;20640;-89
2023/08/12 04:44:11;;;;;;;10.68;5.25;;;14.40;99.90;;;;;;5025362;28;20179;-89
2023/08/12 04:46:37;;;;;;;7.80;4.85;;;14.50;99.90;;;;;;5059733;28;20275;-89
2023/08/12 04:52:25;;;;;;;10.15;5.32;;;14.80;99.90;;;;;;5077012;28;20163;-87
2023/08/12 04:54:53;;;;;;;12.68;5.43;;;15.00;99.90;;;;;;5058249;28;20187;-86
2023/08/12 04:57:19;;;;;;;7.82;5.25;;;15.10;99.90;;;;;;5076620;28;20225;-88
2023/08/12 04:59:45;;;;;;;7.85;4.57;;;15.10;99.90;;;;;;5042644;28;20188;-89
2023/08/12 05:02:10;;;;;;;9.32;5.88;;;15.10;99.90;;;;;;5060745;28;20187;-88
2023/08/12 05:04:36;;;;;;;6.18;4.85;;;15.10;99.90;;;;;;5078914;28;20189;-87
2023/08/12 05:07:01;;;;;;;9.38;5.40;;;15.30;99.90;;;;;;5077047;28;20175;-90
2023/08/12 05:09:27;;;;;;;8.10;5.07;;;15.30;99.90;;;;;;5059016;28;20735;-90
2023/08/12 05:11:53;;;;;;;8.60;5.15;;;15.50;99.90;;;;;;5045533;28;20654;-88
2023/08/12 05:14:18;;;;;;;7.82;5.35;;;15.70;99.90;;;;;;5083150;28;20726;-89
2023/08/12 05:16:44;;;;;;;7.93;4.63;;;15.80;99.90;;;;;;5049542;28;20229;-89
2023/08/12 05:19:09;;;;;;;7.90;4.70;;;15.90;99.90;;;;;;5077111;28;20598;-88
2023/08/12 05:21:35;;;;;;;8.48;4.82;;;16.00;99.90;;;;;;5041708;28;20171;-88
2023/08/12 05:24:01;;;;;;;15.60;5.63;;;16.20;99.90;;;;;;5057875;28;20180;-89
2023/08/12 05:26:26;;;;;;;8.35;5.07;;;16.20;99.90;;;;;;5040906;28;20551;-89
2023/08/12 05:28:52;;;;;;;8.15;4.80;;;16.30;99.90;;;;;;5074796;28;20207;-89
2023/08/12 05:31:18;;;;;;;8.10;5.70;;;16.40;99.90;;;;;;5040503;28;20203;-91
2023/08/12 05:33:43;;;;;;;9.38;5.03;;;16.50;99.90;;;;;;5075249;28;20183;-91
2023/08/12 05:36:09;;;;;;;6.97;4.85;;;16.70;99.90;;;;;;5058024;28;20180;-93
2023/08/12 05:38:35;;;;;;;5.38;3.70;;;16.90;99.90;;;;;;5058075;28;20239;-93
2023/08/12 05:41:01;;;;;;;8.40;4.25;;;;;;;;;;5057979;28;20179;-93
2023/08/12 05:43:26;;;;;;;5.38;3.95;;;17.20;99.90;;;;;;5058167;28;20187;-94
2023/08/12 05:45:52;;;;;;;6.45;3.95;;;17.40;99.90;;;;;;5040597;28;20175;-95
2023/08/12 05:48:17;;;;;;;8.07;5.05;;;17.60;99.90;;;;;;5040440;28;20523;-87
2023/08/12 05:50:43;;;;;;;9.40;4.03;;;17.70;99.90;;;;;;5039856;28;20187;-89
2023/08/12 05:53:09;;;;;;;4.32;3.65;;;17.90;99.90;;;;;;5074599;28;20187;-89
2023/08/12 05:55:35;;;;;;;8.52;3.33;;;17.90;99.90;;;;;;5056161;28;20248;-91
2023/08/12 05:58:01;;;;;;;7.63;3.20;;;18.00;99.90;;;;;;5056232;28;20183;-89
2023/08/12 06:00:27;;;;;;;4.65;2.83;;;18.20;99.90;;;;;;5056985;28;20190;-89
2023/08/12 06:02:53;;;;;;;8.00;3.88;;;18.20;99.90;;;;;;5056147;28;20180;-90
2023/08/12 06:05:18;;;;;;;17.98;4.45;;;18.30;99.90;;;;;;5039731;28;20632;-90
2023/08/12 06:07:44;;;;;;;10.82;3.58;;;18.40;99.90;;;;;;5039859;28;20179;-91
2023/08/12 06:10:10;;;;;;;5.90;3.70;;;18.60;99.90;;;;;;5039287;28;20671;-90
2023/08/12 06:12:35;;;;;;;7.60;3.20;;;18.70;99.90;;;;;;5039460;28;20794;-89
2023/08/12 06:15:01;;;;;;;7.20;3.15;;;18.80;99.90;;;;;;5074057;28;20321;-91
2023/08/12 06:17:27;;;;;;;6.90;3.17;;;18.80;99.90;;;;;;5073637;28;20689;-88
2023/08/12 06:19:53;;;;;;;4.68;2.72;;;18.80;99.90;;;;;;5055976;28;20186;-90
2023/08/12 06:22:18;;;;;;;7.25;2.72;;;18.80;98.30;;;;;;5056431;28;20306;-93
2023/08/12 06:24:44;;;;;;;5.85;3.13;;;18.90;98.20;;;;;;5074057;28;20171;-93
2023/08/12 06:27:10;;;;;;;4.70;3.10;;;18.90;98.60;;;;;;5056686;28;20194;-92
2023/08/12 06:29:36;;;;;;;5.25;2.53;;;19.10;98.80;;;;;;5055881;28;20215;-91
2023/08/12 06:32:01;;;;;;;5.60;2.65;;;19.20;98.30;;;;;;5056280;28;20237;-89
2023/08/12 06:34:27;;;;;;;7.18;2.47;;;19.40;98.50;;;;;;5022849;28;20187;-91
2023/08/12 06:36:53;;;;;;;5.15;3.20;;;19.60;98.60;;;;;;5073539;28;20216;-93
2023/08/12 06:39:18;;;;;;;4.90;2.72;;;19.70;96.40;;;;;;5058133;28;20184;-94
2023/08/12 06:41:44;;;;;;;7.03;2.85;;;19.70;96.60;;;;;;5041476;28;20319;-94
2023/08/12 06:44:10;;;;;;;5.45;2.40;;;19.80;96.30;;;;;;5056985;28;20453;-92
2023/08/12 06:46:35;;;;;;;4.30;2.45;;;19.90;95.10;;;;;;5039151;28;20594;-91
2023/08/12 06:49:01;;;;;;;7.97;2.47;;;20.00;94.20;;;;;;5061061;28;20215;-92
2023/08/12 06:51:27;;;;;;;6.07;2.80;;;20.00;94.50;;;;;;5039635;28;20648;-89
2023/08/12 06:53:52;;;;;;;3.47;2.22;;;20.00;93.00;;;;;;5039526;28;20229;-92
2023/08/12 06:56:18;;;;;;;3.22;2.10;;;20.10;93.60;;;;;;5074293;28;20640;-91
2023/08/12 06:58:44;;;;;;;4.38;2.60;;;20.10;93.40;;;;;;5096047;28;20198;-89
2023/08/12 07:01:09;;;;;;;2.72;2.10;;;20.20;93.20;;;;;;5059969;28;20240;-88
2023/08/12 07:03:35;;;;;;;2.55;1.98;;;20.30;92.40;;;;;;5072449;28;20187;-92
2023/08/12 07:06:01;;;;;;;5.78;2.22;;;20.30;90.10;;;;;;5056722;28;20270;-91
2023/08/12 07:08:27;;;;;;;4.15;2.00;;;20.40;90.50;;;;;;5075886;28;20710;-89
2023/08/12 07:10:53;;;;;;;4.22;2.10;;;20.40;86.90;;;;;;5094465;28;20199;-90
2023/08/12 07:13:18;;;;;;;2.60;1.80;;;20.50;88.60;;;;;;5085409;28;20194;-90
2023/08/12 07:15:44;;;;;;;7.22;1.90;;;20.60;88.90;;;;;;5054474;28;20234;-91
2023/08/12 07:18:09;;;;;;;2.05;1.40;;;20.70;83.00;;;;;;5022614;28;20182;-92
2023/08/12 07:20:35;;;;;;;3.67;1.58;;;20.70;80.70;;;;;;5054652;28;20588;-89
2023/08/12 07:23:01;;;;;;;1.85;1.45;;;20.80;78.50;;;;;;5055260;28;20608;-88
2023/08/12 07:25:26;;;;;;;3.08;1.55;;;20.90;79.20;;;;;;5022015;28;20209;-87
2023/08/12 07:27:52;;;;;;;2.38;1.75;;;21.00;79.20;;;;;;5021703;28;20605;-88
2023/08/12 07:30:18;;;;;;;2.22;1.73;;;21.30;96.80;;;;;;5055121;28;20706;-91
2023/08/12 07:32:44;;;;;;;2.47;1.45;;;;;;;;;;5055210;28;20175;-88
2023/08/12 07:35:10;;;;;;;5.00;1.85;;;;;;;;;;5074788;28;20254;-88
2023/08/12 07:37:36;;;;;;;2.28;1.40;;;;;;;;;;5054622;28;20194;-88
2023/08/12 07:40:03;;;;;;;3.20;1.48;;;;;;;;;;5072776;28;20194;-86
2023/08/12 07:42:29;;;;;;;1.60;1.13;;;21.40;71.20;;;;;;5054990;28;20534;-88
2023/08/12 07:44:54;;;;;;;2.00;1.40;;;21.40;72.40;;;;;;5054978;28;20183;-90
2023/08/12 07:47:20;;;;;;;4.85;2.10;;;21.50;75.70;;;;;;5072879;28;20172;-88
2023/08/12 07:49:45;;;;;;;1.85;1.33;;;21.60;73.40;;;;;;5054577;28;20217;-88
2023/08/12 07:52:11;;;;;;;2.10;1.25;;;21.60;69.70;;;;;;5054622;28;20175;-87
2023/08/12 07:54:37;;;;;;;4.63;1.40;;;22.10;72.60;;;;;;5072164;28;20265;-87
2023/08/12 07:57:03;;;;;;;2.75;1.33;;;22.00;80.10;;;;;;5038113;28;20213;-88
2023/08/12 07:59:29;;;;;;;2.10;1.25;;;21.70;67.10;;;;;;5054998;28;20230;-87
2023/08/12 08:01:55;;;;;;;2.97;1.80;;;;;;;;;;5073775;28;20179;-88
2023/08/12 08:04:21;;;;;;;2.40;1.30;;;;;;;;;;5072931;28;20532;-89
2023/08/12 08:06:46;;;;;;;2.60;1.80;;;21.90;64.20;;;;;;5074403;28;20175;-89
2023/08/12 08:09:12;;;;;;;4.22;2.67;;;21.90;66.40;;;;;;5092965;28;20284;-89
2023/08/12 08:11:38;;;;;;;2.15;1.52;;;22.60;77.20;;;;;;5074178;28;20172;-89
2023/08/12 08:14:03;;;;;;;2.15;1.38;;;22.80;88.60;;;;;;5054542;28;20273;-89
2023/08/12 08:16:29;;;;;;;1.30;1.20;;;22.10;73.30;;;;;;5054696;28;20182;-87
2023/08/12 08:18:55;;;;;;;2.33;1.15;;;22.40;71.10;;;;;;5072082;28;20752;-88
2023/08/12 08:21:20;;;;;;;3.25;1.58;;;22.40;62.00;;;;;;5022338;28;20520;-88
2023/08/12 08:23:46;;;;;;;1.60;1.00;;;;;;;;;;5055143;28;20576;-88
2023/08/12 08:26:13;;;;;;;2.72;1.42;;;22.50;57.80;;;;;;5060407;28;20205;-86
2023/08/12 08:28:38;;;;;;;1.45;1.00;;;22.50;59.60;;;;;;5093657;28;20233;-89
2023/08/12 08:31:04;;;;;;;2.53;1.05;;;22.40;58.80;;;;;;5082347;28;20254;-88
2023/08/12 08:33:30;;;;;;;3.00;1.38;;;22.40;59.80;;;;;;5075619;28;20632;-88
2023/08/12 08:35:55;;;;;;;1.90;1.40;;;22.20;69.40;;;;;;5075942;28;20687;-87
2023/08/12 08:38:21;;;;;;;2.10;1.10;;;22.50;70.00;;;;;;5057965;28;20187;-88
2023/08/12 08:40:50;;;;;;;1.38;0.90;;;22.90;66.00;;;;;;5075990;28;20218;-89
2023/08/12 08:43:24;;;;;;;1.52;1.10;;;22.70;68.30;;;;;;5041132;28;20190;-88
2023/08/12 08:45:54;;;;;;;2.20;1.08;;;22.90;68.40;;;;;;5057694;28;20175;-87
2023/08/12 08:48:21;;;;;;;2.55;1.50;;;22.70;58.50;;;;;;5075270;28;20232;-88
2023/08/12 08:50:48;;;;;;;1.48;1.15;;;22.90;58.90;;;;;;5075534;28;20178;-87
2023/08/12 08:53:15;;;;;;;1.30;1.00;;;23.00;66.80;;;;;;5075473;28;20215;-88
2023/08/12 08:55:41;;;;;;;2.40;1.08;;;22.90;67.90;;;;;;5076327;28;20536;-87
2023/08/12 08:58:07;;;;;;;1.92;1.23;;;22.90;57.00;;;;;;5058029;28;20179;-87
2023/08/12 09:00:33;;;;;;;2.08;1.02;;;23.00;57.80;;;;;;5075588;28;20182;-88
2023/08/12 09:03:00;;;;;;;1.60;1.05;;;23.00;56.40;;;;;;5057371;28;20202;-89
2023/08/12 09:05:26;;;;;;;1.23;1.00;;;22.90;56.30;;;;;;5058023;28;20266;-88
2023/08/12 09:07:54;;;;;;;2.70;1.50;;;22.90;55.80;;;;;;5076469;28;20175;-88
2023/08/12 09:10:21;;;;;;;2.65;1.50;;;23.00;56.80;;;;;;5075900;28;20257;-87
2023/08/12 09:12:47;;;;;;;1.95;1.20;;;23.10;56.80;;;;;;5075679;28;20187;-88
2023/08/12 09:15:12;;;;;;;3.25;1.67;;;23.20;56.80;;;;;;5040510;28;20246;-87
2023/08/12 09:17:38;;;;;;;2.55;1.40;;;23.30;56.80;;;;;;5075070;28;20628;-87
2023/08/12 09:20:11;;;;;;;6.47;1.50;;;23.40;56.10;;;;;;5075870;28;20210;-86
2023/08/12 09:22:37;;;;;;;2.20;1.20;;;23.40;56.50;;;;;;5075358;28;20159;-87
2023/08/12 09:25:04;;;;;;;1.10;1.00;;;23.50;56.30;;;;;;5074913;28;20292;-87
2023/08/12 09:27:33;;;;;;;5.72;1.45;;;23.40;57.00;;;;;;5075422;28;20175;-88
2023/08/12 09:29:58;;;;;;;1.58;1.25;;;23.40;56.90;;;;;;5076760;28;20203;-87
2023/08/12 09:32:24;;;;;;;1.92;1.05;;;23.60;57.60;;;;;;5077042;28;20248;-87
2023/08/12 09:34:52;;;;;;;3.42;1.95;;;23.70;56.70;;;;;;5075376;28;20175;-87
2023/08/12 09:37:23;;;;;;;1.70;1.20;;;23.70;55.90;;;;;;5058860;28;20178;-86
2023/08/12 09:39:50;;;;;;;4.38;1.58;;;23.70;55.40;;;;;;5042176;28;20677;-88
2023/08/12 09:42:17;;;;;;;2.50;1.13;;;23.80;56.30;;;;;;5057734;28;20221;-86
2023/08/12 09:44:43;;;;;;;2.80;1.10;;;23.90;55.80;;;;;;5075222;28;20685;-87
2023/08/12 09:47:09;;;;;;;1.20;1.10;;;23.90;54.70;;;;;;5058294;28;20246;-87
2023/08/12 09:49:35;;;;;;;1.27;1.05;;;23.90;56.00;;;;;;5059813;28;20250;-88
2023/08/12 09:52:02;;;;;;;2.25;1.10;;;24.10;55.40;;;;;;5058373;28;20199;-87
2023/08/12 09:54:28;;;;;;;2.40;1.30;;;24.20;56.80;;;;;;5057340;28;20191;-88
2023/08/12 09:56:59;;;;;;;1.35;1.10;;;24.30;55.40;;;;;;5058077;28;20179;-86
2023/08/12 09:59:36;;;;;;;3.10;1.25;;;24.20;55.80;;;;;;5075518;28;20197;-86
2023/08/12 10:02:06;;;;;;;3.40;1.48;;;24.20;56.60;;;;;;5075955;28;20250;-87
2023/08/12 10:04:41;;;;;;;2.28;1.38;;;24.40;56.00;;;;;;5075487;28;20175;-87
2023/08/12 10:07:09;;;;;;;1.50;1.17;;;24.40;55.90;;;;;;5076153;28;20171;-86
2023/08/12 10:09:38;;;;;;;1.77;1.60;;;24.20;54.70;;;;;;5057290;28;20207;-86
2023/08/12 10:12:08;;;;;;;1.55;1.35;;;24.30;54.80;;;;;;5058416;28;20167;-86
2023/08/12 10:14:34;;;;;;;1.17;1.08;;;24.30;54.90;;;;;;5080131;28;20223;-88
2023/08/12 10:17:01;;;;;;;1.83;1.23;;;24.40;57.20;;;;;;5077543;28;20170;-87
2023/08/12 10:19:27;;;;;;;3.20;1.63;;;24.50;54.80;;;;;;5092455;28;20209;-85
2023/08/12 10:21:58;;;;;;;1.77;1.52;;;24.70;55.30;;;;;;5065383;28;20270;-88
2023/08/12 10:24:27;;;;;;;2.67;1.42;;;24.60;54.60;;;;;;5077317;28;20171;-87
2023/08/12 10:26:53;;;;;;;3.50;1.38;;;24.60;54.10;;;;;;5068397;28;20179;-87
2023/08/12 10:29:20;;;;;;;2.38;1.38;;;24.70;55.80;;;;;;5091391;28;20258;-88
2023/08/12 10:31:47;;;;;;;2.63;1.10;;;24.70;56.40;;;;;;5092699;28;20167;-87
2023/08/12 10:34:23;;;;;;;1.52;1.17;;;25.00;54.70;;;;;;5080199;28;20175;-88
2023/08/12 10:37:03;;;;;;;2.28;1.45;;;24.70;54.90;;;;;;5079507;28;20224;-87
2023/08/12 10:39:31;;;;;;;3.67;1.42;;;24.70;54.70;;;;;;5063362;28;20244;-86
2023/08/12 10:41:58;;;;;;;2.22;1.15;;;24.70;54.20;;;;;;5060437;28;20187;-86
2023/08/12 10:44:40;;;;;;;2.80;1.30;;;24.70;53.20;;;;;;5041074;28;20179;-85
2023/08/12 10:47:10;;;;;;;1.67;1.33;;;24.80;54.40;;;;;;5074406;28;20663;-88
2023/08/12 10:49:46;;;;;;;2.30;1.60;;;24.80;53.10;;;;;;5039565;28;20218;-88
2023/08/12 10:52:33;;;;;;;3.20;1.40;;;24.90;55.40;;;;;;5056385;28;20268;-87
2023/08/12 10:55:21;;;;;;;4.72;2.03;;;25.40;55.50;;;;;;5055424;28;20175;-87
2023/08/12 10:57:47;;;;;;;2.13;1.20;;;24.90;53.00;;;;;;5056292;28;20572;-87
2023/08/12 11:00:22;;;;;;;2.58;1.27;;;25.00;53.80;;;;;;5039120;28;20183;-87
2023/08/12 11:02:58;;;;;;;4.38;1.60;;;25.00;54.30;;;;;;5055590;28;20620;-86
2023/08/12 11:05:24;;;;;;;4.53;1.50;;;25.30;53.60;;;;;;5073464;28;20676;-86
2023/08/12 11:08:03;;;;;;;3.60;1.27;;;25.30;54.10;;;;;;5073684;28;20175;-86
2023/08/12 11:10:32;;;;;;;1.00;0.90;;;25.30;53.90;;;;;;5073336;28;20195;-87
2023/08/12 11:12:58;;;;;;;2.92;1.30;;;25.50;55.00;;;;;;5055377;28;20182;-94
2023/08/12 11:15:41;;;;;;;3.70;1.70;;;25.70;53.00;;;;;;5073232;28;20721;-88
2023/08/12 11:18:13;;;;;;;1.90;1.48;;;25.40;53.10;;;;;;5073452;28;20253;-86
2023/08/12 11:20:39;;;;;;;2.08;1.40;;;25.50;54.00;;;;;;5078750;28;20628;-88
2023/08/12 11:23:07;;;;;;;1.52;1.00;;;25.40;51.80;;;;;;5059273;28;20182;-87
2023/08/12 11:25:34;;;;;;;2.40;1.40;;;25.40;52.70;;;;;;5056658;28;20179;-87
2023/08/12 11:28:00;;;;;;;2.40;1.40;;;25.30;53.10;;;;;;5073390;28;20710;-87
2023/08/12 11:30:26;;;;;;;2.30;1.20;;;25.40;52.70;;;;;;5073109;28;20207;-88
2023/08/12 11:32:53;;;;;;;2.30;1.20;;;25.30;51.80;;;;;;5073450;28;20647;-87
2023/08/12 11:35:21;;;;;;;3.55;1.40;;;25.30;52.50;;;;;;5072972;28;20203;-86
2023/08/12 11:37:48;;;;;;;1.45;1.30;;;25.30;53.70;;;;;;5073291;28;20220;-87
2023/08/12 11:40:16;;;;;;;2.30;1.27;;;25.30;54.20;;;;;;5073214;28;20185;-88
2023/08/12 11:42:44;;;;;;;2.95;1.35;;;25.60;54.30;;;;;;5073207;28;20258;-88
2023/08/12 11:45:11;;;;;;;3.13;1.63;;;25.60;51.90;;;;;;5057772;28;20534;-89
2023/08/12 11:47:39;;;;;;;2.33;1.05;;;25.60;52.60;;;;;;5075995;28;20707;-87
2023/08/12 11:50:07;;;;;;;3.38;1.40;;;25.70;53.20;;;;;;5078132;28;20211;-88
2023/08/12 11:52:33;;;;;;;2.58;1.42;;;25.70;52.90;;;;;;5058146;28;20182;-88
2023/08/12 11:54:59;;;;;;;2.85;1.15;;;25.40;57.00;;;;;;5075639;28;20175;-89
2023/08/12 11:57:27;;;;;;;2.72;0.85;;;25.50;52.80;;;;;;5074114;28;20216;-89
2023/08/12 12:00:08;;;;;;;1.83;1.10;;;25.40;52.00;;;;;;5056076;28;20183;-87
2023/08/12 12:03:00;;;;;;;3.20;1.30;;;25.20;51.80;;;;;;5057943;28;20160;-88
2023/08/12 12:05:35;;;;;;;3.03;1.40;;;25.40;51.80;;;;;;5079742;28;20202;-87
2023/08/12 12:08:01;;;;;;;6.38;1.77;;;25.60;50.00;;;;;;5092736;28;20163;-89
2023/08/12 12:10:35;;;;;;;1.70;1.10;;;25.60;50.70;;;;;;5046365;28;20224;-89
2023/08/12 12:13:03;;;;;;;1.58;1.20;;;25.80;51.60;;;;;;5059304;28;20155;-88
2023/08/12 12:15:29;;;;;;;1.52;1.20;;;25.80;50.90;;;;;;5077022;28;20276;-87
2023/08/12 12:17:54;;;;;;;1.65;1.05;;;25.80;51.50;;;;;;5059284;28;20176;-88
2023/08/12 12:20:21;;;;;;;1.13;0.95;;;25.80;50.30;;;;;;5059747;28;20183;-86
2023/08/12 12:22:47;;;;;;;1.13;1.02;;;25.90;50.20;;;;;;5077183;28;20612;-88
2023/08/12 12:25:15;;;;;;;1.80;1.05;;;25.90;49.70;;;;;;5076656;28;20265;-88
2023/08/12 12:27:42;;;;;;;3.08;1.27;;;25.90;49.60;;;;;;5058800;28;20171;-87
2023/08/12 12:30:10;;;;;;;4.88;1.40;;;25.90;49.50;;;;;;5076549;28;20214;-87
2023/08/12 12:32:36;;;;;;;3.78;1.25;;;25.90;48.70;;;;;;5059240;28;20633;-87
2023/08/12 12:35:03;;;;;;;7.07;1.42;;;25.90;49.80;;;;;;5076210;28;20202;-86
2023/08/12 12:37:29;;;;;;;10.63;1.55;;;26.10;50.50;;;;;;5076261;28;20264;-86
2023/08/12 12:39:55;;;;;;;4.05;1.35;;;26.20;49.00;;;;;;5076286;28;20179;-86
2023/08/12 12:42:20;;;;;;;2.08;1.38;;;26.10;50.60;;;;;;5058102;28;20634;-88
2023/08/12 12:44:46;;;;;;;1.67;1.30;;;26.30;50.60;;;;;;5075998;28;20183;-87
2023/08/12 12:47:12;;;;;;;2.35;1.23;;;26.40;48.90;;;;;;5058911;28;20179;-85
2023/08/12 12:49:39;;;;;;;2.83;1.35;;;26.20;49.90;;;;;;5076688;28;20210;-87